Appleton, Wisconsin
Current Conditions -  °F | °C
As of 10:15 PM on Tuesday 27 Jan 2015 (Local Time) from KATW Reporting Station
Overcast Overcast  
Wind Chill: -5°   Ceiling: 2500
Heat Index: -5°   Visibility: 10mi
Dew Point: -8°   Wind: 3mph
Humidity: 80%   Direction: 130°SE
Pressure: 30.23"   Gusts: NA
Location:  44.26°N, 88.42°W
Report Text: KATW 280415Z AUTO 13003KT 10SM OVC025 M05/M08 A3023 RMK AO2
Loading
Personal Weather Stations






























Interactive Weather Map New forecast layout! Learn more

10-Day Weather Forecast

Advertisements
Track Severe Weather on mobile